Time;durP1;ratioP1;P1;durP2;ratioP2;P2;SDS_P1;SDS_P2;PMS_P1;PMS_P2;Temp;Humidity;BMP_temperature;BMP_pressure;BME280_temperature;BME280_humidity;BME280_pressure;Samples;Min_cycle;Max_cycle;Signal;HPM_P1;HPM_P2
2023/09/22 00:01:12;;;;;;;14.85;8.50;;;14.30;82.40;;;;;;5100907;28;20409;-70
2023/09/22 00:03:38;;;;;;;14.23;7.78;;;14.30;82.20;;;;;;5101067;28;20401;-70
2023/09/22 00:06:04;;;;;;;15.23;7.80;;;14.30;82.20;;;;;;5100595;28;20447;-70
2023/09/22 00:08:30;;;;;;;14.00;7.97;;;14.20;82.00;;;;;;5099369;28;20839;-70
2023/09/22 00:10:55;;;;;;;15.20;8.50;;;14.20;81.90;;;;;;5100322;28;20402;-70
2023/09/22 00:13:21;;;;;;;14.77;7.87;;;14.20;82.00;;;;;;5089851;28;20848;-70
2023/09/22 00:15:47;;;;;;;13.65;7.80;;;14.20;82.00;;;;;;5095989;28;20388;-70
2023/09/22 00:18:13;;;;;;;15.63;8.40;;;14.10;82.20;;;;;;5103776;28;20499;-71
2023/09/22 00:20:39;;;;;;;16.30;8.70;;;14.10;82.30;;;;;;5105349;28;20400;-71
2023/09/22 00:23:04;;;;;;;14.00;8.05;;;14.10;82.40;;;;;;5103234;28;20436;-71
2023/09/22 00:25:31;;;;;;;16.10;8.60;;;14.10;82.50;;;;;;5104953;28;20408;-69
2023/09/22 00:27:57;;;;;;;15.82;8.98;;;14.10;82.70;;;;;;5094571;28;20507;-69
2023/09/22 00:30:23;;;;;;;17.33;8.88;;;14.10;82.90;;;;;;5101537;28;20760;-69
2023/09/22 00:32:49;;;;;;;13.73;8.20;;;14.10;82.80;;;;;;5071280;28;20410;-69
2023/09/22 00:35:15;;;;;;;14.40;8.30;;;14.10;82.90;;;;;;5094067;28;20436;-69
2023/09/22 00:37:41;;;;;;;14.57;8.10;;;14.10;83.00;;;;;;5100462;28;20422;-69
2023/09/22 00:40:12;;;;;;;11.95;7.53;;;14.10;83.10;;;;;;5091157;28;20515;-69
2023/09/22 00:42:38;;;;;;;12.00;7.60;;;14.10;82.90;;;;;;5099751;28;20955;-69
2023/09/22 00:45:04;;;;;;;13.10;7.63;;;14.10;82.90;;;;;;5100386;28;20481;-69
2023/09/22 00:47:30;;;;;;;12.63;7.55;;;14.10;82.90;;;;;;5089161;28;20457;-69
2023/09/22 00:49:56;;;;;;;14.03;7.10;;;14.10;82.90;;;;;;5088796;28;20973;-69
2023/09/22 00:52:23;;;;;;;13.05;7.05;;;14.10;82.90;;;;;;5080753;28;20414;-70
2023/09/22 00:54:50;;;;;;;9.43;6.03;;;14.10;83.20;;;;;;5092488;28;20407;-70
2023/09/22 00:57:19;;;;;;;10.75;6.53;;;14.10;83.00;;;;;;5089073;28;20488;-70
2023/09/22 00:59:47;;;;;;;9.77;6.00;;;14.00;83.00;;;;;;5101897;28;20399;-70
2023/09/22 01:02:12;;;;;;;10.98;6.10;;;14.10;83.00;;;;;;5095587;28;20432;-70
2023/09/22 01:04:38;;;;;;;10.00;6.30;;;14.10;82.90;;;;;;5101715;28;20433;-70
2023/09/22 01:07:04;;;;;;;9.18;5.80;;;14.10;83.00;;;;;;5098627;28;20430;-70
2023/09/22 01:09:29;;;;;;;10.15;6.20;;;14.00;83.20;;;;;;5091102;28;20471;-70
2023/09/22 01:11:55;;;;;;;9.93;6.13;;;14.10;83.40;;;;;;5102491;28;20439;-70
2023/09/22 01:14:21;;;;;;;10.15;6.25;;;14.10;83.60;;;;;;5099018;28;20467;-70
2023/09/22 01:16:47;;;;;;;11.43;6.55;;;14.10;83.60;;;;;;5091816;28;20489;-70
2023/09/22 01:19:16;;;;;;;10.17;6.37;;;14.10;83.70;;;;;;5098518;28;20855;-70
2023/09/22 01:21:42;;;;;;;11.63;6.82;;;14.10;83.60;;;;;;5080309;28;20501;-71
2023/09/22 01:24:10;;;;;;;10.20;6.93;;;14.10;83.70;;;;;;5098400;28;20456;-70
2023/09/22 01:26:36;;;;;;;9.55;6.82;;;14.10;83.80;;;;;;5085188;28;20437;-71
2023/09/22 01:29:04;;;;;;;9.50;6.20;;;14.10;83.90;;;;;;5092152;28;20497;-68
2023/09/22 01:31:29;;;;;;;9.77;6.30;;;14.10;84.10;;;;;;5088901;28;20386;-68
2023/09/22 01:33:55;;;;;;;8.80;5.50;;;14.10;83.90;;;;;;5095767;28;20400;-69
2023/09/22 01:36:21;;;;;;;9.87;5.73;;;14.10;83.90;;;;;;5099080;28;20402;-69
2023/09/22 01:38:46;;;;;;;8.90;5.53;;;14.10;84.00;;;;;;5088184;28;20402;-69
2023/09/22 01:41:12;;;;;;;9.43;5.70;;;14.20;84.30;;;;;;5097090;28;20390;-69
2023/09/22 01:43:39;;;;;;;8.80;5.68;;;14.20;84.30;;;;;;5090001;28;20489;-69
2023/09/22 01:46:05;;;;;;;9.40;5.85;;;14.10;84.10;;;;;;5098586;28;20409;-69
2023/09/22 01:48:31;;;;;;;9.90;5.88;;;14.10;84.10;;;;;;5082955;28;20434;-69
2023/09/22 01:51:02;;;;;;;9.20;5.70;;;14.10;83.90;;;;;;5080658;28;20448;-69
2023/09/22 01:53:28;;;;;;;10.30;6.20;;;14.10;84.10;;;;;;5104854;28;20396;-69
2023/09/22 01:55:54;;;;;;;9.95;5.75;;;14.10;84.30;;;;;;5100470;28;20401;-69
2023/09/22 01:58:20;;;;;;;11.13;6.27;;;14.20;84.30;;;;;;5088338;28;20930;-69
2023/09/22 02:00:46;;;;;;;11.27;6.47;;;14.20;84.90;;;;;;5088756;28;20409;-69
2023/09/22 02:03:11;;;;;;;12.38;6.80;;;14.20;84.40;;;;;;5104800;28;20405;-69
2023/09/22 02:05:37;;;;;;;13.33;7.30;;;14.20;84.30;;;;;;5099832;28;21136;-70
2023/09/22 02:08:03;;;;;;;13.15;7.22;;;14.20;84.40;;;;;;5095796;28;20404;-69
2023/09/22 02:10:29;;;;;;;15.00;8.07;;;14.10;84.40;;;;;;5093741;28;20519;-70
2023/09/22 02:12:54;;;;;;;19.00;8.63;;;14.20;84.60;;;;;;5108343;28;20472;-70
2023/09/22 02:15:20;;;;;;;19.55;9.88;;;14.20;84.80;;;;;;5092435;28;21026;-69
2023/09/22 02:17:49;;;;;;;20.00;9.43;;;14.20;84.60;;;;;;5094852;28;20438;-70
2023/09/22 02:20:21;;;;;;;21.73;9.88;;;14.30;85.10;;;;;;5072095;28;20526;-70
2023/09/22 02:22:55;;;;;;;24.85;11.27;;;14.30;85.50;;;;;;5095445;28;20400;-70
2023/09/22 02:25:22;;;;;;;22.45;11.27;;;14.20;85.60;;;;;;5096900;28;20524;-70
2023/09/22 02:27:49;;;;;;;27.08;13.15;;;14.30;85.80;;;;;;5096718;28;20424;-70
2023/09/22 02:30:18;;;;;;;31.60;14.35;;;14.30;86.40;;;;;;5096531;28;20414;-70
2023/09/22 02:32:48;;;;;;;32.47;14.55;;;14.40;86.00;;;;;;5099731;28;20403;-70
2023/09/22 02:35:18;;;;;;;34.30;15.77;;;14.40;86.00;;;;;;5091797;28;20406;-70
2023/09/22 02:37:44;;;;;;;34.08;15.88;;;14.40;86.10;;;;;;5091957;28;20398;-70
2023/09/22 02:40:12;;;;;;;35.55;15.80;;;14.40;85.80;;;;;;5094811;28;20399;-70
2023/09/22 02:42:38;;;;;;;40.55;16.55;;;14.30;85.60;;;;;;5102164;28;20959;-69
2023/09/22 02:45:04;;;;;;;38.08;16.55;;;14.30;85.40;;;;;;5099882;28;20489;-70
2023/09/22 02:47:30;;;;;;;38.35;16.83;;;14.30;85.60;;;;;;5096217;28;20918;-69
2023/09/22 02:49:56;;;;;;;40.35;17.13;;;14.30;85.80;;;;;;5107799;28;20397;-70
2023/09/22 02:52:22;;;;;;;38.47;16.83;;;14.30;86.20;;;;;;5096646;28;20409;-70
2023/09/22 02:54:52;;;;;;;36.05;17.45;;;14.30;86.50;;;;;;5091452;28;20394;-70
2023/09/22 02:57:18;;;;;;;38.33;17.42;;;14.40;86.80;;;;;;5091274;28;20896;-70
2023/09/22 02:59:43;;;;;;;39.97;17.67;;;14.40;87.00;;;;;;5101249;28;20401;-70
2023/09/22 03:02:09;;;;;;;40.50;18.07;;;14.40;87.20;;;;;;5075020;28;20418;-70
2023/09/22 03:04:35;;;;;;;41.85;18.00;;;14.40;87.30;;;;;;5092927;28;20426;-70
2023/09/22 03:07:01;;;;;;;38.30;18.65;;;14.50;87.20;;;;;;5104874;28;20473;-70
2023/09/22 03:09:27;;;;;;;40.35;18.52;;;14.50;87.10;;;;;;5104475;28;20393;-69
2023/09/22 03:11:53;;;;;;;40.27;18.33;;;14.50;87.50;;;;;;5095191;28;20862;-70
2023/09/22 03:14:18;;;;;;;43.40;18.77;;;14.50;87.10;;;;;;5090979;28;20489;-70
2023/09/22 03:16:44;;;;;;;40.88;18.90;;;14.40;87.00;;;;;;5099122;28;20403;-69
2023/09/22 03:19:10;;;;;;;40.50;19.13;;;14.50;87.10;;;;;;5077487;28;20449;-70
2023/09/22 03:21:35;;;;;;;40.83;20.13;;;14.50;87.20;;;;;;5103790;28;20396;-70
2023/09/22 03:24:01;;;;;;;45.40;19.97;;;14.40;87.20;;;;;;5104118;28;20412;-70
2023/09/22 03:26:27;;;;;;;42.90;20.85;;;14.50;87.40;;;;;;5094721;28;20490;-70
2023/09/22 03:28:52;;;;;;;41.93;20.57;;;14.50;86.70;;;;;;5104137;28;20465;-70
2023/09/22 03:31:19;;;;;;;44.10;21.65;;;14.50;87.30;;;;;;5101258;28;20478;-70
2023/09/22 03:33:46;;;;;;;43.90;20.80;;;14.50;87.70;;;;;;5110301;28;20407;-70
2023/09/22 03:36:12;;;;;;;42.97;20.67;;;14.50;87.70;;;;;;5106331;28;21013;-70
2023/09/22 03:38:42;;;;;;;44.38;21.60;;;14.60;87.70;;;;;;5100816;28;20921;-70
2023/09/22 03:41:08;;;;;;;42.03;21.35;;;14.50;87.70;;;;;;5102245;28;20901;-70
2023/09/22 03:43:34;;;;;;;45.67;22.23;;;14.60;87.90;;;;;;5101358;28;20477;-69
2023/09/22 03:46:00;;;;;;;44.75;21.48;;;14.60;87.90;;;;;;5103883;28;20852;-69
2023/09/22 03:48:26;;;;;;;41.05;21.40;;;14.60;87.80;;;;;;5101078;28;20426;-70
2023/09/22 03:50:53;;;;;;;40.78;20.75;;;14.60;87.40;;;;;;5101274;28;20397;-70
2023/09/22 03:53:19;;;;;;;42.25;21.65;;;14.60;87.30;;;;;;5100745;28;20401;-70
2023/09/22 03:55:44;;;;;;;43.67;21.65;;;14.50;87.20;;;;;;5089657;28;20406;-70
2023/09/22 03:58:11;;;;;;;42.78;21.27;;;14.50;87.30;;;;;;5090149;28;20417;-69
2023/09/22 04:00:37;;;;;;;38.95;20.98;;;14.50;87.20;;;;;;5099741;28;20919;-70
2023/09/22 04:03:09;;;;;;;43.40;20.83;;;14.50;87.10;;;;;;5099859;28;20418;-70
2023/09/22 04:05:36;;;;;;;45.47;21.60;;;14.50;87.30;;;;;;5089651;28;20462;-70
2023/09/22 04:08:02;;;;;;;44.37;21.10;;;14.50;87.20;;;;;;5106697;28;21160;-69
2023/09/22 04:10:27;;;;;;;43.10;21.15;;;14.50;87.20;;;;;;5092356;28;20493;-69
2023/09/22 04:12:53;;;;;;;40.95;20.50;;;14.40;86.80;;;;;;5096113;28;20898;-69
2023/09/22 04:15:19;;;;;;;42.80;21.50;;;14.40;86.80;;;;;;5101338;28;20398;-70
2023/09/22 04:17:46;;;;;;;38.40;20.17;;;14.40;86.80;;;;;;5095786;28;20405;-69
2023/09/22 04:20:12;;;;;;;43.42;20.65;;;14.40;87.10;;;;;;5101190;28;20398;-70
2023/09/22 04:22:39;;;;;;;36.65;19.45;;;14.40;87.40;;;;;;5104013;28;20415;-69
2023/09/22 04:25:10;;;;;;;37.25;18.58;;;14.40;87.30;;;;;;5073173;28;20409;-69
2023/09/22 04:27:42;;;;;;;36.05;18.23;;;14.40;87.10;;;;;;5096767;28;20427;-69
2023/09/22 04:30:11;;;;;;;37.75;18.52;;;14.40;87.30;;;;;;5095847;28;20403;-69
2023/09/22 04:32:38;;;;;;;35.37;17.83;;;14.40;87.30;;;;;;5103839;28;20482;-69
2023/09/22 04:35:06;;;;;;;33.85;16.75;;;14.40;87.50;;;;;;5095886;28;20406;-70
2023/09/22 04:37:32;;;;;;;31.60;15.63;;;14.40;87.00;;;;;;5103069;28;20407;-70
2023/09/22 04:39:58;;;;;;;28.07;15.00;;;14.40;87.10;;;;;;5102554;28;20388;-69
2023/09/22 04:42:24;;;;;;;25.20;13.65;;;14.40;87.10;;;;;;5089057;28;20386;-69
2023/09/22 04:44:54;;;;;;;27.55;13.77;;;14.40;87.00;;;;;;5102632;28;20405;-69
2023/09/22 04:47:20;;;;;;;26.77;13.85;;;14.40;86.90;;;;;;5091799;28;20425;-69
2023/09/22 04:49:46;;;;;;;27.33;13.47;;;14.40;86.60;;;;;;5086276;28;20408;-69
2023/09/22 04:52:11;;;;;;;27.98;13.75;;;14.40;86.50;;;;;;5094746;28;20405;-69
2023/09/22 04:54:37;;;;;;;26.52;13.15;;;14.30;85.90;;;;;;5099144;28;20475;-70
2023/09/22 04:57:03;;;;;;;27.10;13.60;;;14.30;86.50;;;;;;5089112;28;20903;-69
2023/09/22 04:59:29;;;;;;;26.05;13.68;;;14.30;86.80;;;;;;5091689;28;20425;-69
2023/09/22 05:01:56;;;;;;;26.87;13.67;;;14.30;86.50;;;;;;5088723;28;20463;-69
2023/09/22 05:04:23;;;;;;;28.37;13.70;;;14.30;86.50;;;;;;5093144;28;20408;-69
2023/09/22 05:06:49;;;;;;;27.30;13.60;;;14.30;86.60;;;;;;5105209;28;20460;-69
2023/09/22 05:09:15;;;;;;;26.15;13.50;;;14.30;86.30;;;;;;5097885;28;20397;-69
2023/09/22 05:11:41;;;;;;;28.58;13.15;;;14.30;86.40;;;;;;5105095;28;20469;-69
2023/09/22 05:14:06;;;;;;;26.53;12.90;;;14.30;86.40;;;;;;5098247;28;20398;-69
2023/09/22 05:16:32;;;;;;;26.92;13.85;;;14.20;86.60;;;;;;5098780;28;20935;-69
2023/09/22 05:19:01;;;;;;;29.63;14.02;;;14.20;86.60;;;;;;5098451;28;20473;-69
2023/09/22 05:21:26;;;;;;;32.80;15.07;;;14.20;87.00;;;;;;5098024;28;20415;-69
2023/09/22 05:23:52;;;;;;;30.33;14.37;;;14.30;86.50;;;;;;5098082;28;20410;-69
2023/09/22 05:26:17;;;;;;;30.92;15.20;;;14.20;86.50;;;;;;5088525;28;20830;-69
2023/09/22 05:28:43;;;;;;;31.00;15.33;;;14.20;86.40;;;;;;5087692;28;20821;-69
2023/09/22 05:31:09;;;;;;;29.23;15.02;;;14.20;86.70;;;;;;5090493;28;20410;-67
2023/09/22 05:33:37;;;;;;;28.83;14.75;;;14.20;86.80;;;;;;5092006;28;20484;-69
2023/09/22 05:36:03;;;;;;;31.75;16.02;;;14.20;86.80;;;;;;5101360;28;20830;-69
2023/09/22 05:38:29;;;;;;;30.47;15.90;;;14.20;86.80;;;;;;5092904;28;20441;-69
2023/09/22 05:40:55;;;;;;;31.40;16.80;;;14.30;86.70;;;;;;5090220;28;20404;-70
2023/09/22 05:43:22;;;;;;;30.30;17.93;;;14.20;86.70;;;;;;5078671;28;20911;-70
2023/09/22 05:45:57;;;;;;;32.63;18.00;;;14.30;86.80;;;;;;5088131;28;20462;-70
2023/09/22 05:48:23;;;;;;;33.30;18.02;;;14.30;86.70;;;;;;5094393;28;20420;-70
2023/09/22 05:50:59;;;;;;;34.33;18.75;;;14.30;86.50;;;;;;5087259;28;20912;-70
2023/09/22 05:53:26;;;;;;;32.72;18.40;;;14.30;85.60;;;;;;5088271;28;20490;-70
2023/09/22 05:56:06;;;;;;;32.90;19.07;;;14.20;85.80;;;;;;5087685;28;20926;-70
2023/09/22 05:58:32;;;;;;;37.17;19.27;;;14.20;85.90;;;;;;5096125;28;20403;-70
2023/09/22 06:01:07;;;;;;;34.03;19.50;;;14.20;85.80;;;;;;5088207;28;20403;-70
2023/09/22 06:03:34;;;;;;;33.33;18.65;;;14.20;85.80;;;;;;5087799;28;20394;-70
2023/09/22 06:06:08;;;;;;;32.78;19.13;;;14.20;84.90;;;;;;5087934;28;20416;-70
2023/09/22 06:08:36;;;;;;;30.63;18.48;;;14.10;84.60;;;;;;5105195;28;20893;-70
2023/09/22 06:11:02;;;;;;;32.25;19.17;;;14.10;85.00;;;;;;5101569;28;20401;-70
2023/09/22 06:13:27;;;;;;;37.35;19.10;;;14.20;85.10;;;;;;5091962;28;20393;-69
2023/09/22 06:15:53;;;;;;;31.60;18.65;;;14.10;85.00;;;;;;5105366;28;20766;-69
2023/09/22 06:18:19;;;;;;;35.97;19.77;;;14.10;85.10;;;;;;5096713;28;20398;-70
2023/09/22 06:20:45;;;;;;;36.78;19.73;;;14.20;85.10;;;;;;5099906;28;20409;-69
2023/09/22 06:23:10;;;;;;;35.73;20.40;;;14.20;85.00;;;;;;5081444;28;20410;-70
2023/09/22 06:25:36;;;;;;;35.85;19.83;;;14.20;85.20;;;;;;5099205;28;20426;-70
2023/09/22 06:28:03;;;;;;;35.03;20.17;;;14.30;85.40;;;;;;5100327;28;20420;-69
2023/09/22 06:30:30;;;;;;;35.03;19.70;;;14.30;85.20;;;;;;5102920;28;20400;-70
2023/09/22 06:32:55;;;;;;;35.63;19.67;;;14.30;85.10;;;;;;5097735;28;20688;-70
2023/09/22 06:35:21;;;;;;;35.27;19.30;;;14.30;85.00;;;;;;5102171;28;20398;-70
2023/09/22 06:37:47;;;;;;;33.35;19.25;;;14.30;85.00;;;;;;5096993;28;20394;-69
2023/09/22 06:40:13;;;;;;;35.87;20.20;;;14.40;85.20;;;;;;5094970;28;20487;-70
2023/09/22 06:42:44;;;;;;;36.55;20.25;;;14.40;84.90;;;;;;5096872;28;20402;-70
2023/09/22 06:45:11;;;;;;;38.00;21.00;;;14.40;84.40;;;;;;5091590;28;20402;-70
2023/09/22 06:47:43;;;;;;;35.40;20.30;;;14.50;84.40;;;;;;5091278;28;20428;-70
2023/09/22 06:50:11;;;;;;;34.95;20.17;;;14.40;83.80;;;;;;5109158;28;20442;-70
2023/09/22 06:52:37;;;;;;;38.30;21.23;;;14.40;83.70;;;;;;5078311;28;20400;-70
2023/09/22 06:55:07;;;;;;;36.65;20.23;;;14.50;83.40;;;;;;5099126;28;20851;-70
2023/09/22 06:57:33;;;;;;;33.13;19.75;;;14.50;82.80;;;;;;5094679;28;20768;-70
2023/09/22 06:59:59;;;;;;;33.08;19.80;;;14.40;82.30;;;;;;5108113;28;20411;-70
2023/09/22 07:02:25;;;;;;;32.90;20.40;;;14.40;82.00;;;;;;5103842;28;20405;-70
2023/09/22 07:04:50;;;;;;;34.72;21.38;;;14.40;82.00;;;;;;5107952;28;20392;-70
2023/09/22 07:07:18;;;;;;;32.25;19.75;;;14.40;82.00;;;;;;5093063;28;20425;-70
2023/09/22 07:09:44;;;;;;;32.78;19.63;;;14.40;81.80;;;;;;5091190;28;20391;-70
2023/09/22 07:12:09;;;;;;;32.50;19.25;;;14.50;82.30;;;;;;5092642;28;20450;-69
2023/09/22 07:14:36;;;;;;;32.47;19.63;;;14.60;83.10;;;;;;5099405;28;20439;-70
2023/09/22 07:17:02;;;;;;;29.95;18.73;;;14.60;82.00;;;;;;5094633;28;20396;-70
2023/09/22 07:19:30;;;;;;;30.50;19.15;;;14.70;81.60;;;;;;5095306;28;20448;-69
2023/09/22 07:21:55;;;;;;;30.47;18.60;;;14.70;81.10;;;;;;5095604;28;20477;-69
2023/09/22 07:24:21;;;;;;;29.55;19.38;;;14.70;81.40;;;;;;5098475;28;20406;-69
2023/09/22 07:26:47;;;;;;;29.70;18.73;;;14.80;80.80;;;;;;5066537;28;20428;-69
2023/09/22 07:29:12;;;;;;;30.85;18.45;;;14.80;80.10;;;;;;5095895;28;20481;-70
2023/09/22 07:31:38;;;;;;;27.40;17.77;;;14.80;79.90;;;;;;5090677;28;20454;-69
2023/09/22 07:34:04;;;;;;;24.47;16.10;;;14.90;79.50;;;;;;5098589;28;20402;-69
2023/09/22 07:36:30;;;;;;;25.73;16.77;;;14.90;78.70;;;;;;5098832;28;20446;-69
2023/09/22 07:38:55;;;;;;;25.77;16.93;;;14.80;77.60;;;;;;5105077;28;20803;-69
2023/09/22 07:41:21;;;;;;;23.10;15.77;;;14.80;78.10;;;;;;5100008;28;20409;-69
2023/09/22 07:43:46;;;;;;;22.10;15.17;;;14.90;78.10;;;;;;5089996;28;20398;-69
2023/09/22 07:46:12;;;;;;;22.95;15.50;;;14.90;78.10;;;;;;5102546;28;20786;-69
2023/09/22 07:48:38;;;;;;;24.43;15.73;;;15.00;77.20;;;;;;5099298;28;20429;-69
2023/09/22 07:51:05;;;;;;;25.80;15.65;;;15.00;77.30;;;;;;5090378;28;20562;-69
2023/09/22 07:53:30;;;;;;;21.07;14.57;;;15.00;76.60;;;;;;5091999;28;20394;-69
2023/09/22 07:55:59;;;;;;;21.52;14.80;;;15.00;75.90;;;;;;5090163;28;20761;-69
2023/09/22 07:58:26;;;;;;;22.43;15.13;;;15.00;74.90;;;;;;5072513;28;21006;-69
2023/09/22 08:00:52;;;;;;;19.73;14.70;;;14.90;74.60;;;;;;5089347;28;20398;-69
2023/09/22 08:03:18;;;;;;;21.67;15.35;;;14.90;74.90;;;;;;5099558;28;20408;-69
2023/09/22 08:05:45;;;;;;;22.05;14.60;;;14.90;75.10;;;;;;5100857;28;20892;-69
2023/09/22 08:08:12;;;;;;;20.85;14.00;;;14.90;75.00;;;;;;5090460;28;20418;-69
2023/09/22 08:10:40;;;;;;;19.50;13.52;;;14.90;74.20;;;;;;5089893;28;20429;-69
2023/09/22 08:13:09;;;;;;;18.95;12.85;;;14.80;73.50;;;;;;5099613;28;20400;-69
2023/09/22 08:15:35;;;;;;;19.02;13.15;;;14.80;74.00;;;;;;5092617;28;20397;-69
2023/09/22 08:18:02;;;;;;;17.60;12.55;;;14.80;74.10;;;;;;5106587;28;20400;-69
2023/09/22 08:20:28;;;;;;;19.48;12.60;;;14.80;73.90;;;;;;5101914;28;20450;-69
2023/09/22 08:22:54;;;;;;;22.27;13.40;;;14.80;73.50;;;;;;5096404;28;20390;-70
2023/09/22 08:25:20;;;;;;;21.17;13.57;;;14.70;73.30;;;;;;5093562;28;20414;-70
2023/09/22 08:27:48;;;;;;;20.58;13.45;;;14.70;73.50;;;;;;5098025;28;20503;-70
2023/09/22 08:30:14;;;;;;;19.27;13.23;;;14.70;73.40;;;;;;5099832;28;20409;-70
2023/09/22 08:32:44;;;;;;;19.58;12.95;;;14.70;73.70;;;;;;5095326;28;20451;-70
2023/09/22 08:35:15;;;;;;;19.83;13.70;;;14.70;73.80;;;;;;5089937;28;20477;-71
2023/09/22 08:37:43;;;;;;;19.98;13.02;;;14.70;73.90;;;;;;5089590;28;20918;-70
2023/09/22 08:40:11;;;;;;;18.77;13.07;;;14.70;74.40;;;;;;5093423;28;20409;-67
2023/09/22 08:42:38;;;;;;;19.63;13.50;;;14.70;73.80;;;;;;5085280;28;20935;-69
2023/09/22 08:45:06;;;;;;;19.83;12.80;;;14.70;73.70;;;;;;5090161;28;20490;-69
2023/09/22 08:47:42;;;;;;;19.15;13.10;;;14.70;73.60;;;;;;5101217;28;20552;-70
2023/09/22 08:50:11;;;;;;;19.13;12.83;;;14.70;73.40;;;;;;5096576;28;20397;-70
2023/09/22 08:52:41;;;;;;;20.70;13.50;;;14.70;73.90;;;;;;5094555;28;20875;-70
2023/09/22 08:55:12;;;;;;;18.13;13.13;;;14.70;74.10;;;;;;5107506;28;20409;-69
2023/09/22 08:57:44;;;;;;;20.02;12.90;;;14.70;74.30;;;;;;5093403;28;20758;-69
2023/09/22 09:00:18;;;;;;;15.82;11.68;;;14.70;73.80;;;;;;5097083;28;20398;-69
2023/09/22 09:02:44;;;;;;;16.20;11.32;;;14.70;73.40;;;;;;5104062;28;20480;-70
2023/09/22 09:05:28;;;;;;;17.00;11.27;;;14.70;73.60;;;;;;5107132;28;20427;-70
2023/09/22 09:08:08;;;;;;;14.03;10.73;;;14.80;74.50;;;;;;5088809;28;20425;-70
2023/09/22 09:10:35;;;;;;;14.02;9.93;;;14.90;74.90;;;;;;5101358;28;20406;-71
2023/09/22 09:13:01;;;;;;;15.10;9.77;;;15.00;75.10;;;;;;5082150;28;20441;-70
2023/09/22 09:15:29;;;;;;;15.52;9.90;;;15.00;74.40;;;;;;5103778;28;20479;-70
2023/09/22 09:18:11;;;;;;;14.85;9.43;;;15.10;73.50;;;;;;5079508;28;20981;-70
2023/09/22 09:20:40;;;;;;;12.02;7.57;;;15.20;73.40;;;;;;5106565;28;20420;-70
2023/09/22 09:23:14;;;;;;;13.38;6.72;;;15.20;72.40;;;;;;5089972;28;20400;-70
2023/09/22 09:25:47;;;;;;;10.63;5.78;;;15.20;70.60;;;;;;5088355;28;21075;-70
2023/09/22 09:28:15;;;;;;;8.18;5.25;;;15.20;68.60;;;;;;5101356;28;20422;-70
2023/09/22 09:30:54;;;;;;;8.43;5.60;;;15.10;67.80;;;;;;5077705;28;20486;-69
2023/09/22 09:33:22;;;;;;;8.57;5.88;;;15.10;67.50;;;;;;5102785;28;20402;-70
2023/09/22 09:35:49;;;;;;;9.68;6.10;;;15.10;67.20;;;;;;5105859;28;20401;-70
2023/09/22 09:38:15;;;;;;;10.60;5.78;;;15.10;67.50;;;;;;5104834;28;20841;-70
2023/09/22 09:40:41;;;;;;;11.95;5.70;;;15.20;68.50;;;;;;5094173;28;20406;-70
2023/09/22 09:43:14;;;;;;;8.70;5.00;;;15.40;70.50;;;;;;5088676;28;20764;-70
2023/09/22 09:45:49;;;;;;;7.13;4.35;;;15.70;72.60;;;;;;5099080;28;20392;-70
2023/09/22 09:48:17;;;;;;;6.43;3.78;;;16.40;84.70;;;;;;5104490;28;20421;-70
2023/09/22 09:50:47;;;;;;;6.77;3.00;;;17.80;80.20;;;;;;5103251;28;20479;-70
2023/09/22 09:53:23;;;;;;;6.35;2.72;;;18.50;62.90;;;;;;5099108;28;20493;-70
2023/09/22 09:55:52;;;;;;;5.87;2.30;;;19.10;54.00;;;;;;5088327;28;20416;-70
2023/09/22 09:58:20;;;;;;;5.25;1.95;;;19.80;34.70;;;;;;5105323;28;20407;-70
2023/09/22 10:00:46;;;;;;;3.20;1.67;;;20.50;29.80;;;;;;5101629;28;20390;-71
2023/09/22 10:03:13;;;;;;;4.50;2.17;;;21.10;24.60;;;;;;5104724;28;20396;-69
2023/09/22 10:05:40;;;;;;;4.22;1.60;;;21.70;8.10;;;;;;5090576;28;20409;-69
2023/09/22 10:08:07;;;;;;;5.13;2.20;;;22.20;7.40;;;;;;5096248;28;20430;-70
2023/09/22 10:10:35;;;;;;;5.37;2.10;;;22.60;1.00;;;;;;5087672;28;20437;-70
2023/09/22 10:13:01;;;;;;;5.22;1.65;;;22.40;1.00;;;;;;5088245;28;20410;-70
2023/09/22 10:15:54;;;;;;;5.20;2.10;;;22.10;1.00;;;;;;5087840;28;20636;-70
2023/09/22 10:18:21;;;;;;;3.38;1.60;;;21.50;1.00;;;;;;5099918;28;20440;-70
2023/09/22 10:20:48;;;;;;;2.92;1.58;;;21.70;1.00;;;;;;5087136;28;20390;-70
2023/09/22 10:23:22;;;;;;;3.28;1.35;;;22.40;1.00;;;;;;5087608;28;20449;-70
2023/09/22 10:26:17;;;;;;;4.70;1.52;;;23.10;1.00;;;;;;5092259;28;20456;-70
2023/09/22 10:28:43;;;;;;;2.97;1.40;;;23.60;1.00;;;;;;5091892;28;20503;-69
2023/09/22 10:31:09;;;;;;;3.25;1.00;;;23.60;1.00;;;;;;5101478;28;20503;-70
2023/09/22 10:33:35;;;;;;;2.63;0.88;;;24.00;1.00;;;;;;5087729;28;20400;-71
2023/09/22 10:36:01;;;;;;;4.17;1.00;;;24.40;1.00;;;;;;5088056;28;20395;-70
2023/09/22 10:38:27;;;;;;;4.72;0.77;;;24.70;1.00;;;;;;5088706;28;20402;-70
2023/09/22 10:41:05;;;;;;;2.97;0.50;;;24.50;1.00;;;;;;5087684;28;20926;-71
2023/09/22 10:43:32;;;;;;;2.50;0.60;;;24.30;1.00;;;;;;5096672;28;20421;-70
2023/09/22 10:45:59;;;;;;;1.50;0.45;;;23.70;1.00;;;;;;5098941;28;20457;-69
2023/09/22 10:48:36;;;;;;;2.53;0.80;;;23.00;1.00;;;;;;5087846;28;20426;-69
2023/09/22 10:51:02;;;;;;;1.50;0.43;;;22.20;1.00;;;;;;5097860;28;20760;-70
2023/09/22 10:53:32;;;;;;;1.88;0.60;;;21.60;1.00;;;;;;5089895;28;20405;-69
2023/09/22 10:55:58;;;;;;;3.20;0.70;;;21.60;1.00;;;;;;5091878;28;20455;-70
2023/09/22 10:58:26;;;;;;;2.20;0.60;;;21.30;1.00;;;;;;5099522;28;20389;-69
2023/09/22 11:00:56;;;;;;;3.50;0.82;;;20.70;1.00;;;;;;5093829;28;20826;-69
2023/09/22 11:03:22;;;;;;;2.73;0.83;;;20.20;1.00;;;;;;5102169;28;20406;-69
2023/09/22 11:05:57;;;;;;;1.92;0.77;;;19.80;1.00;;;;;;5091690;28;20437;-70
2023/09/22 11:08:23;;;;;;;5.22;0.90;;;20.10;1.00;;;;;;5091847;28;20457;-70
2023/09/22 11:10:51;;;;;;;2.78;0.60;;;21.20;1.00;;;;;;5092693;28;20792;-70
2023/09/22 11:13:18;;;;;;;2.17;0.50;;;22.20;1.00;;;;;;5097154;28;20402;-70
2023/09/22 11:15:56;;;;;;;2.57;0.60;;;23.20;1.00;;;;;;5076809;28;20482;-69
2023/09/22 11:18:27;;;;;;;1.97;0.60;;;24.10;1.00;;;;;;5090712;28;21149;-70
2023/09/22 11:20:59;;;;;;;2.42;0.57;;;24.00;1.00;;;;;;5104632;28;20405;-70
2023/09/22 11:23:26;;;;;;;1.65;0.50;;;23.70;1.00;;;;;;5093561;28;20447;-70
2023/09/22 11:26:07;;;;;;;2.30;0.40;;;23.30;1.00;;;;;;5082443;28;20411;-70
2023/09/22 11:28:33;;;;;;;3.92;0.70;;;22.60;1.00;;;;;;5092317;28;20429;-70
2023/09/22 11:31:08;;;;;;;1.27;0.50;;;22.40;1.00;;;;;;5097752;28;20772;-69
2023/09/22 11:33:36;;;;;;;2.35;0.40;;;22.90;1.00;;;;;;5090542;28;20406;-70
2023/09/22 11:36:03;;;;;;;3.00;0.53;;;23.30;1.00;;;;;;5090819;28;20401;-70
2023/09/22 11:38:31;;;;;;;1.83;0.50;;;23.50;1.00;;;;;;5101926;28;20981;-70
2023/09/22 11:41:14;;;;;;;2.28;0.50;;;23.60;99.90;;;;;;5103155;28;20758;-70
2023/09/22 11:43:45;;;;;;;1.42;0.40;;;23.60;1.00;;;;;;5098418;28;20452;-71
2023/09/22 11:46:17;;;;;;;3.35;0.50;;;24.10;99.90;;;;;;5090729;28;20458;-71
2023/09/22 11:49:02;;;;;;;2.75;0.70;;;24.10;99.90;;;;;;5099533;28;20435;-71
2023/09/22 11:51:54;;;;;;;2.00;0.40;;;23.80;99.90;;;;;;5094811;28;20763;-70
2023/09/22 11:54:28;;;;;;;2.30;0.55;;;23.10;99.90;;;;;;5077332;28;20410;-69
2023/09/22 11:56:57;;;;;;;1.40;0.32;;;22.50;1.00;;;;;;5090396;28;20463;-70
2023/09/22 11:59:26;;;;;;;1.95;0.55;;;22.10;1.00;;;;;;5092800;28;20994;-70
2023/09/22 12:01:52;;;;;;;1.75;0.40;;;21.70;1.00;;;;;;5107601;28;20890;-70
2023/09/22 12:04:19;;;;;;;1.67;0.32;;;21.40;1.00;;;;;;5105703;28;20461;-70
2023/09/22 12:06:45;;;;;;;2.30;0.40;;;21.10;1.00;;;;;;5072192;28;20426;-69
2023/09/22 12:09:12;;;;;;;1.77;0.32;;;20.80;1.00;;;;;;5103333;28;20485;-70
2023/09/22 12:11:39;;;;;;;1.25;0.40;;;20.60;1.00;;;;;;5092734;28;20401;-70
2023/09/22 12:14:05;;;;;;;1.02;0.40;;;20.50;1.00;;;;;;5109813;28;20399;-70
2023/09/22 12:16:32;;;;;;;1.90;0.50;;;20.50;1.00;;;;;;5105997;28;20388;-70
2023/09/22 12:18:58;;;;;;;1.92;0.40;;;20.50;1.00;;;;;;5074228;28;20931;-70
2023/09/22 12:21:27;;;;;;;1.90;0.50;;;20.70;1.00;;;;;;5105821;28;20388;-70
2023/09/22 12:23:53;;;;;;;1.65;0.40;;;20.80;1.00;;;;;;5092580;28;20449;-70
2023/09/22 12:26:20;;;;;;;1.92;0.50;;;20.70;1.00;;;;;;5097833;28;20436;-70
2023/09/22 12:28:46;;;;;;;1.85;0.50;;;20.50;1.00;;;;;;5103823;28;20433;-70
2023/09/22 12:31:12;;;;;;;2.03;0.50;;;20.30;1.00;;;;;;5103230;28;20400;-70
2023/09/22 12:33:38;;;;;;;2.67;0.60;;;20.20;1.00;;;;;;5090479;28;20455;-70
2023/09/22 12:36:04;;;;;;;1.63;0.63;;;20.00;1.00;;;;;;5089753;28;20404;-70
2023/09/22 12:38:30;;;;;;;1.73;0.50;;;19.80;1.00;;;;;;5102347;28;20480;-70